Trabzon, Turkey
Current Conditions -  °F | °C
As of 12:20 AM on Tuesday 21 Oct 2014 (Local Time) from LTCG Reporting Station
Broken Clouds Broken Clouds  
Wind Chill: 52°   Ceiling: 10000
Heat Index: 52°   Visibility: 6mi
Dew Point: 45°   Wind: 6mph
Humidity: 76%   Direction: 210°SSW
Pressure: 30.12"   Gusts: NA
Location:  41°N, 39.71°E
Report Text: LTCG 202120Z 21005KT 9999 SCT035 BKN100 11/07 Q1020 NOSIG
Loading
Personal Weather Stations






























Interactive Weather Map
Tropical Storm Tracking
New forecast layout! Learn more

10-Day Weather Forecast

Advertisements
Track Severe Weather on mobile